sensor_id;sensor_type;location;lat;lon;timestamp;pressure;altitude;pressure_sealevel;temperature;humidity
72285;BME280;60220;53.552;10.092;2024-02-23T00:00:08;97688.50;;;10.30;100.00
72285;BME280;60220;53.552;10.092;2024-02-23T00:02:37;97692.94;;;10.14;100.00
72285;BME280;60220;53.552;10.092;2024-02-23T00:05:04;97689.81;;;10.65;100.00
72285;BME280;60220;53.552;10.092;2024-02-23T00:07:30;97684.28;;;10.70;100.00
72285;BME280;60220;53.552;10.092;2024-02-23T00:09:57;97693.66;;;10.46;100.00
72285;BME280;60220;53.552;10.092;2024-02-23T00:12:27;97701.94;;;10.10;100.00
72285;BME280;60220;53.552;10.092;2024-02-23T00:14:54;97710.03;;;10.35;100.00
72285;BME280;60220;53.552;10.092;2024-02-23T00:17:21;97715.75;;;9.98;100.00
72285;BME280;60220;53.552;10.092;2024-02-23T00:19:50;97723.44;;;10.01;100.00
72285;BME280;60220;53.552;10.092;2024-02-23T00:22:18;97731.91;;;9.90;100.00
72285;BME280;60220;53.552;10.092;2024-02-23T00:24:44;97756.69;;;9.84;100.00
72285;BME280;60220;53.552;10.092;2024-02-23T00:27:11;97750.53;;;9.85;100.00
72285;BME280;60220;53.552;10.092;2024-02-23T00:29:39;97748.34;;;9.62;100.00
72285;BME280;60220;53.552;10.092;2024-02-23T00:32:09;97726.44;;;9.49;100.00
72285;BME280;60220;53.552;10.092;2024-02-23T00:34:36;97730.94;;;9.77;100.00
72285;BME280;60220;53.552;10.092;2024-02-23T00:37:05;97733.69;;;9.60;100.00
72285;BME280;60220;53.552;10.092;2024-02-23T00:39:33;97746.69;;;9.61;100.00
72285;BME280;60220;53.552;10.092;2024-02-23T00:41:59;97746.97;;;9.41;100.00
72285;BME280;60220;53.552;10.092;2024-02-23T00:44:28;97725.56;;;9.64;100.00
72285;BME280;60220;53.552;10.092;2024-02-23T00:46:56;97743.72;;;9.67;100.00
72285;BME280;60220;53.552;10.092;2024-02-23T00:49:29;97757.00;;;9.48;100.00
72285;BME280;60220;53.552;10.092;2024-02-23T00:51:58;97760.47;;;9.94;100.00
72285;BME280;60220;53.552;10.092;2024-02-23T00:54:25;97759.25;;;9.70;100.00
72285;BME280;60220;53.552;10.092;2024-02-23T00:56:54;97796.66;;;9.88;100.00
72285;BME280;60220;53.552;10.092;2024-02-23T00:59:20;97837.66;;;9.73;100.00
72285;BME280;60220;53.552;10.092;2024-02-23T01:01:49;97871.13;;;7.65;100.00
72285;BME280;60220;53.552;10.092;2024-02-23T01:04:19;97890.47;;;7.61;100.00
72285;BME280;60220;53.552;10.092;2024-02-23T01:06:46;97869.44;;;7.26;100.00
72285;BME280;60220;53.552;10.092;2024-02-23T01:09:13;97893.78;;;7.27;100.00
72285;BME280;60220;53.552;10.092;2024-02-23T01:11:41;97920.38;;;6.96;100.00
72285;BME280;60220;53.552;10.092;2024-02-23T01:14:08;97929.50;;;6.86;100.00
72285;BME280;60220;53.552;10.092;2024-02-23T01:16:35;97933.19;;;7.21;100.00
72285;BME280;60220;53.552;10.092;2024-02-23T01:19:01;97938.44;;;7.19;100.00
72285;BME280;60220;53.552;10.092;2024-02-23T01:21:30;97945.81;;;7.49;100.00
72285;BME280;60220;53.552;10.092;2024-02-23T01:23:59;97959.75;;;7.29;100.00
72285;BME280;60220;53.552;10.092;2024-02-23T01:26:26;97959.94;;;7.06;100.00
72285;BME280;60220;53.552;10.092;2024-02-23T01:28:55;97971.66;;;7.55;100.00
72285;BME280;60220;53.552;10.092;2024-02-23T01:31:22;97973.78;;;7.47;100.00
72285;BME280;60220;53.552;10.092;2024-02-23T01:33:48;97967.97;;;7.77;100.00
72285;BME280;60220;53.552;10.092;2024-02-23T01:36:15;97986.88;;;7.45;100.00
72285;BME280;60220;53.552;10.092;2024-02-23T01:38:44;98002.75;;;7.20;100.00
72285;BME280;60220;53.552;10.092;2024-02-23T01:41:11;98006.22;;;7.60;100.00
72285;BME280;60220;53.552;10.092;2024-02-23T01:43:37;98012.84;;;7.08;100.00
72285;BME280;60220;53.552;10.092;2024-02-23T01:46:05;98010.78;;;7.16;100.00
72285;BME280;60220;53.552;10.092;2024-02-23T01:48:32;98029.84;;;7.77;100.00
72285;BME280;60220;53.552;10.092;2024-02-23T01:51:00;98034.44;;;7.52;100.00
72285;BME280;60220;53.552;10.092;2024-02-23T01:53:27;98037.84;;;7.13;100.00
72285;BME280;60220;53.552;10.092;2024-02-23T01:55:55;98041.38;;;7.12;100.00
72285;BME280;60220;53.552;10.092;2024-02-23T01:58:24;98063.53;;;7.22;100.00
72285;BME280;60220;53.552;10.092;2024-02-23T02:00:51;98071.00;;;7.52;100.00
72285;BME280;60220;53.552;10.092;2024-02-23T02:03:17;98082.44;;;7.68;100.00
72285;BME280;60220;53.552;10.092;2024-02-23T02:05:44;98092.97;;;7.46;100.00
72285;BME280;60220;53.552;10.092;2024-02-23T02:08:11;98102.38;;;7.50;100.00
72285;BME280;60220;53.552;10.092;2024-02-23T02:10:38;98122.19;;;7.74;100.00
72285;BME280;60220;53.552;10.092;2024-02-23T02:13:09;98116.00;;;7.57;100.00
72285;BME280;60220;53.552;10.092;2024-02-23T02:15:35;98129.44;;;7.68;100.00
72285;BME280;60220;53.552;10.092;2024-02-23T02:18:05;98141.06;;;7.41;100.00
72285;BME280;60220;53.552;10.092;2024-02-23T02:20:33;98141.13;;;7.59;100.00
72285;BME280;60220;53.552;10.092;2024-02-23T02:22:59;98145.72;;;7.32;100.00
72285;BME280;60220;53.552;10.092;2024-02-23T02:25:26;98154.06;;;7.20;100.00
72285;BME280;60220;53.552;10.092;2024-02-23T02:27:53;98158.34;;;7.01;100.00
72285;BME280;60220;53.552;10.092;2024-02-23T02:30:23;98161.72;;;7.25;100.00
72285;BME280;60220;53.552;10.092;2024-02-23T02:32:49;98179.38;;;7.18;100.00
72285;BME280;60220;53.552;10.092;2024-02-23T02:35:16;98170.91;;;7.33;100.00
72285;BME280;60220;53.552;10.092;2024-02-23T02:37:45;98193.19;;;6.99;100.00
72285;BME280;60220;53.552;10.092;2024-02-23T02:40:11;98207.94;;;7.00;100.00
72285;BME280;60220;53.552;10.092;2024-02-23T02:42:38;98214.25;;;6.94;100.00
72285;BME280;60220;53.552;10.092;2024-02-23T02:45:05;98214.16;;;6.97;100.00
72285;BME280;60220;53.552;10.092;2024-02-23T02:47:33;98233.16;;;6.99;100.00
72285;BME280;60220;53.552;10.092;2024-02-23T02:50:01;98241.47;;;6.64;100.00
72285;BME280;60220;53.552;10.092;2024-02-23T02:52:28;98250.56;;;6.77;100.00
72285;BME280;60220;53.552;10.092;2024-02-23T02:54:55;98261.72;;;6.80;100.00
72285;BME280;60220;53.552;10.092;2024-02-23T02:57:21;98274.59;;;6.62;100.00
72285;BME280;60220;53.552;10.092;2024-02-23T02:59:50;98279.16;;;7.02;100.00
72285;BME280;60220;53.552;10.092;2024-02-23T03:02:17;98286.31;;;6.97;100.00
72285;BME280;60220;53.552;10.092;2024-02-23T03:04:48;98305.88;;;6.62;100.00
72285;BME280;60220;53.552;10.092;2024-02-23T03:07:17;98302.75;;;6.27;100.00
72285;BME280;60220;53.552;10.092;2024-02-23T03:09:44;98308.22;;;6.44;100.00
72285;BME280;60220;53.552;10.092;2024-02-23T03:12:10;98321.38;;;6.65;100.00
72285;BME280;60220;53.552;10.092;2024-02-23T03:14:37;98327.97;;;6.00;100.00
72285;BME280;60220;53.552;10.092;2024-02-23T03:17:06;98337.88;;;6.65;100.00
72285;BME280;60220;53.552;10.092;2024-02-23T03:19:32;98333.09;;;6.53;100.00
72285;BME280;60220;53.552;10.092;2024-02-23T03:22:00;98342.81;;;6.48;100.00
72285;BME280;60220;53.552;10.092;2024-02-23T03:24:27;98341.22;;;6.69;100.00
72285;BME280;60220;53.552;10.092;2024-02-23T03:26:56;98345.72;;;5.88;100.00
72285;BME280;60220;53.552;10.092;2024-02-23T03:29:23;98359.59;;;6.41;100.00
72285;BME280;60220;53.552;10.092;2024-02-23T03:31:52;98361.28;;;6.67;100.00
72285;BME280;60220;53.552;10.092;2024-02-23T03:34:21;98352.72;;;6.38;100.00
72285;BME280;60220;53.552;10.092;2024-02-23T03:36:48;98373.09;;;6.27;100.00
72285;BME280;60220;53.552;10.092;2024-02-23T03:39:16;98385.06;;;6.07;100.00
72285;BME280;60220;53.552;10.092;2024-02-23T03:41:45;98372.38;;;6.22;100.00
72285;BME280;60220;53.552;10.092;2024-02-23T03:44:11;98360.63;;;6.35;100.00
72285;BME280;60220;53.552;10.092;2024-02-23T03:46:38;98384.28;;;6.03;100.00
72285;BME280;60220;53.552;10.092;2024-02-23T03:49:05;98374.56;;;6.34;100.00
72285;BME280;60220;53.552;10.092;2024-02-23T03:51:31;98377.78;;;5.90;100.00
72285;BME280;60220;53.552;10.092;2024-02-23T03:54:00;98381.81;;;6.26;100.00
72285;BME280;60220;53.552;10.092;2024-02-23T03:56:28;98401.47;;;6.35;100.00
72285;BME280;60220;53.552;10.092;2024-02-23T03:58:54;98390.84;;;6.41;100.00
72285;BME280;60220;53.552;10.092;2024-02-23T04:01:21;98402.31;;;6.09;100.00
72285;BME280;60220;53.552;10.092;2024-02-23T04:03:48;98402.53;;;6.29;100.00
72285;BME280;60220;53.552;10.092;2024-02-23T04:06:14;98428.00;;;6.21;100.00
72285;BME280;60220;53.552;10.092;2024-02-23T04:08:41;98428.44;;;6.08;100.00
72285;BME280;60220;53.552;10.092;2024-02-23T04:11:08;98433.06;;;5.98;100.00
72285;BME280;60220;53.552;10.092;2024-02-23T04:13:36;98429.56;;;5.99;100.00
72285;BME280;60220;53.552;10.092;2024-02-23T04:16:03;98441.16;;;5.89;100.00
72285;BME280;60220;53.552;10.092;2024-02-23T04:18:29;98438.56;;;6.17;100.00
72285;BME280;60220;53.552;10.092;2024-02-23T04:20:56;98456.97;;;5.83;100.00
72285;BME280;60220;53.552;10.092;2024-02-23T04:23:23;98471.47;;;5.91;100.00
72285;BME280;60220;53.552;10.092;2024-02-23T04:25:50;98469.50;;;6.26;100.00
72285;BME280;60220;53.552;10.092;2024-02-23T04:28:19;98480.22;;;6.43;100.00
72285;BME280;60220;53.552;10.092;2024-02-23T04:30:47;98471.16;;;6.02;100.00
72285;BME280;60220;53.552;10.092;2024-02-23T04:33:14;98477.06;;;5.78;100.00
72285;BME280;60220;53.552;10.092;2024-02-23T04:35:41;98486.31;;;6.17;100.00
72285;BME280;60220;53.552;10.092;2024-02-23T04:38:08;98486.25;;;5.91;100.00
72285;BME280;60220;53.552;10.092;2024-02-23T04:40:35;98486.69;;;6.03;100.00
72285;BME280;60220;53.552;10.092;2024-02-23T04:43:01;98500.69;;;6.01;100.00
72285;BME280;60220;53.552;10.092;2024-02-23T04:45:28;98503.03;;;5.79;100.00
72285;BME280;60220;53.552;10.092;2024-02-23T04:47:56;98497.53;;;5.90;100.00
72285;BME280;60220;53.552;10.092;2024-02-23T04:50:23;98518.31;;;6.21;100.00
72285;BME280;60220;53.552;10.092;2024-02-23T04:52:49;98502.00;;;6.14;100.00
72285;BME280;60220;53.552;10.092;2024-02-23T04:55:16;98510.78;;;6.38;100.00
72285;BME280;60220;53.552;10.092;2024-02-23T04:57:43;98496.78;;;6.14;100.00
72285;BME280;60220;53.552;10.092;2024-02-23T05:00:11;98515.81;;;5.88;100.00
72285;BME280;60220;53.552;10.092;2024-02-23T05:02:39;98524.72;;;5.80;100.00
72285;BME280;60220;53.552;10.092;2024-02-23T05:05:08;98520.25;;;5.83;100.00
72285;BME280;60220;53.552;10.092;2024-02-23T05:07:35;98538.38;;;5.88;100.00
72285;BME280;60220;53.552;10.092;2024-02-23T05:10:04;98542.16;;;6.35;100.00
72285;BME280;60220;53.552;10.092;2024-02-23T05:12:30;98538.19;;;5.64;100.00
72285;BME280;60220;53.552;10.092;2024-02-23T05:14:57;98543.75;;;5.82;100.00
72285;BME280;60220;53.552;10.092;2024-02-23T05:17:24;98562.91;;;6.10;100.00
72285;BME280;60220;53.552;10.092;2024-02-23T05:19:50;98549.63;;;6.18;100.00
72285;BME280;60220;53.552;10.092;2024-02-23T05:22:18;98546.25;;;5.85;100.00
72285;BME280;60220;53.552;10.092;2024-02-23T05:24:45;98551.56;;;6.13;100.00
72285;BME280;60220;53.552;10.092;2024-02-23T05:27:14;98557.97;;;6.01;100.00
72285;BME280;60220;53.552;10.092;2024-02-23T05:29:41;98567.25;;;5.79;100.00
72285;BME280;60220;53.552;10.092;2024-02-23T05:32:10;98559.00;;;5.64;100.00
72285;BME280;60220;53.552;10.092;2024-02-23T05:34:36;98550.31;;;5.96;100.00
72285;BME280;60220;53.552;10.092;2024-02-23T05:37:03;98562.16;;;5.76;100.00
72285;BME280;60220;53.552;10.092;2024-02-23T05:39:31;98584.59;;;5.80;100.00
72285;BME280;60220;53.552;10.092;2024-02-23T05:41:58;98573.25;;;5.82;100.00
72285;BME280;60220;53.552;10.092;2024-02-23T05:44:27;98582.19;;;6.03;100.00
72285;BME280;60220;53.552;10.092;2024-02-23T05:46:54;98594.53;;;5.66;100.00
72285;BME280;60220;53.552;10.092;2024-02-23T05:49:20;98607.66;;;5.93;100.00
72285;BME280;60220;53.552;10.092;2024-02-23T05:51:47;98608.03;;;5.80;100.00
72285;BME280;60220;53.552;10.092;2024-02-23T05:54:14;98599.91;;;5.92;100.00
72285;BME280;60220;53.552;10.092;2024-02-23T05:56:43;98612.22;;;5.87;100.00
72285;BME280;60220;53.552;10.092;2024-02-23T05:59:10;98615.75;;;6.14;100.00
72285;BME280;60220;53.552;10.092;2024-02-23T06:01:39;98619.38;;;6.08;100.00
72285;BME280;60220;53.552;10.092;2024-02-23T06:04:06;98625.88;;;6.24;100.00
72285;BME280;60220;53.552;10.092;2024-02-23T06:06:32;98632.63;;;5.68;100.00
72285;BME280;60220;53.552;10.092;2024-02-23T06:08:59;98643.66;;;6.10;100.00
72285;BME280;60220;53.552;10.092;2024-02-23T06:11:26;98656.84;;;6.04;100.00
72285;BME280;60220;53.552;10.092;2024-02-23T06:13:54;98656.97;;;5.67;100.00
72285;BME280;60220;53.552;10.092;2024-02-23T06:16:21;98659.19;;;5.81;100.00
72285;BME280;60220;53.552;10.092;2024-02-23T06:18:50;98673.25;;;5.74;100.00
72285;BME280;60220;53.552;10.092;2024-02-23T06:21:17;98667.94;;;6.11;100.00
72285;BME280;60220;53.552;10.092;2024-02-23T06:23:44;98667.91;;;5.80;100.00
72285;BME280;60220;53.552;10.092;2024-02-23T06:26:12;98685.88;;;5.56;100.00
72285;BME280;60220;53.552;10.092;2024-02-23T06:28:39;98705.69;;;5.96;100.00
72285;BME280;60220;53.552;10.092;2024-02-23T06:31:08;98693.13;;;6.10;100.00
72285;BME280;60220;53.552;10.092;2024-02-23T06:33:37;98692.41;;;5.73;100.00
72285;BME280;60220;53.552;10.092;2024-02-23T06:36:04;98696.63;;;5.77;100.00
72285;BME280;60220;53.552;10.092;2024-02-23T06:38:31;98712.16;;;5.80;100.00
72285;BME280;60220;53.552;10.092;2024-02-23T06:40:57;98714.75;;;5.80;100.00
72285;BME280;60220;53.552;10.092;2024-02-23T06:43:24;98715.75;;;6.08;100.00
72285;BME280;60220;53.552;10.092;2024-02-23T06:45:51;98729.38;;;5.51;100.00
72285;BME280;60220;53.552;10.092;2024-02-23T06:48:19;98730.72;;;6.01;100.00
72285;BME280;60220;53.552;10.092;2024-02-23T06:50:48;98733.63;;;5.54;100.00
72285;BME280;60220;53.552;10.092;2024-02-23T06:53:14;98735.66;;;5.43;100.00
72285;BME280;60220;53.552;10.092;2024-02-23T06:55:43;98746.53;;;5.58;100.00
72285;BME280;60220;53.552;10.092;2024-02-23T06:58:10;98751.34;;;5.74;100.00
72285;BME280;60220;53.552;10.092;2024-02-23T07:00:41;98746.09;;;5.77;100.00
72285;BME280;60220;53.552;10.092;2024-02-23T07:03:07;98761.41;;;5.89;100.00
72285;BME280;60220;53.552;10.092;2024-02-23T07:05:36;98763.13;;;5.90;100.00
72285;BME280;60220;53.552;10.092;2024-02-23T07:08:03;98774.22;;;5.62;100.00
72285;BME280;60220;53.552;10.092;2024-02-23T07:10:32;98779.44;;;5.96;100.00
72285;BME280;60220;53.552;10.092;2024-02-23T07:12:58;98780.81;;;5.76;100.00
72285;BME280;60220;53.552;10.092;2024-02-23T07:15:25;98784.94;;;6.18;100.00
72285;BME280;60220;53.552;10.092;2024-02-23T07:17:52;98794.19;;;6.30;100.00
72285;BME280;60220;53.552;10.092;2024-02-23T07:20:18;98801.31;;;5.89;100.00
72285;BME280;60220;53.552;10.092;2024-02-23T07:22:46;98794.00;;;6.37;100.00
72285;BME280;60220;53.552;10.092;2024-02-23T07:25:16;98797.41;;;6.07;100.00
72285;BME280;60220;53.552;10.092;2024-02-23T07:27:45;98799.97;;;6.41;100.00
72285;BME280;60220;53.552;10.092;2024-02-23T07:30:12;98789.25;;;6.52;100.00
72285;BME280;60220;53.552;10.092;2024-02-23T07:32:38;98811.03;;;6.17;100.00
72285;BME280;60220;53.552;10.092;2024-02-23T07:35:05;98797.41;;;6.07;100.00
72285;BME280;60220;53.552;10.092;2024-02-23T07:37:35;98808.22;;;5.92;100.00
72285;BME280;60220;53.552;10.092;2024-02-23T07:40:04;98797.94;;;6.20;100.00
72285;BME280;60220;53.552;10.092;2024-02-23T07:42:31;98792.59;;;5.92;100.00
72285;BME280;60220;53.552;10.092;2024-02-23T07:45:00;98796.63;;;6.03;100.00
72285;BME280;60220;53.552;10.092;2024-02-23T07:47:27;98805.81;;;5.83;100.00
72285;BME280;60220;53.552;10.092;2024-02-23T07:49:53;98815.91;;;5.96;100.00
72285;BME280;60220;53.552;10.092;2024-02-23T07:52:20;98810.50;;;6.36;100.00
72285;BME280;60220;53.552;10.092;2024-02-23T07:54:48;98822.16;;;6.56;100.00
72285;BME280;60220;53.552;10.092;2024-02-23T07:57:16;98827.94;;;6.96;100.00
72285;BME280;60220;53.552;10.092;2024-02-23T07:59:49;98825.84;;;6.78;100.00
72285;BME280;60220;53.552;10.092;2024-02-23T08:02:19;98812.28;;;6.34;100.00
72285;BME280;60220;53.552;10.092;2024-02-23T08:04:47;98816.13;;;6.83;100.00
72285;BME280;60220;53.552;10.092;2024-02-23T08:07:15;98819.66;;;6.51;100.00
72285;BME280;60220;53.552;10.092;2024-02-23T08:09:42;98827.34;;;6.56;100.00
72285;BME280;60220;53.552;10.092;2024-02-23T08:12:11;98840.16;;;6.32;100.00
72285;BME280;60220;53.552;10.092;2024-02-23T08:14:39;98841.03;;;6.95;100.00
72285;BME280;60220;53.552;10.092;2024-02-23T08:17:07;98846.97;;;6.69;100.00
72285;BME280;60220;53.552;10.092;2024-02-23T08:19:36;98850.69;;;6.60;100.00
72285;BME280;60220;53.552;10.092;2024-02-23T08:22:03;98850.28;;;6.43;100.00
72285;BME280;60220;53.552;10.092;2024-02-23T08:24:30;98848.28;;;6.83;100.00
72285;BME280;60220;53.552;10.092;2024-02-23T08:26:56;98852.97;;;6.72;100.00
72285;BME280;60220;53.552;10.092;2024-02-23T08:29:23;98839.16;;;7.27;100.00
72285;BME280;60220;53.552;10.092;2024-02-23T08:31:50;98854.72;;;7.60;100.00
72285;BME280;60220;53.552;10.092;2024-02-23T08:34:18;98858.56;;;7.76;100.00
72285;BME280;60220;53.552;10.092;2024-02-23T08:36:44;98861.78;;;6.98;100.00
72285;BME280;60220;53.552;10.092;2024-02-23T08:39:13;98880.13;;;6.96;100.00
72285;BME280;60220;53.552;10.092;2024-02-23T08:41:40;98868.38;;;7.11;100.00
72285;BME280;60220;53.552;10.092;2024-02-23T08:44:06;98866.44;;;7.47;100.00
72285;BME280;60220;53.552;10.092;2024-02-23T08:46:33;98878.38;;;7.26;100.00
72285;BME280;60220;53.552;10.092;2024-02-23T08:49:02;98885.38;;;7.24;100.00
72285;BME280;60220;53.552;10.092;2024-02-23T08:51:30;98888.44;;;7.38;100.00
72285;BME280;60220;53.552;10.092;2024-02-23T08:53:57;98891.41;;;7.83;100.00
72285;BME280;60220;53.552;10.092;2024-02-23T08:56:28;98879.41;;;7.20;100.00
72285;BME280;60220;53.552;10.092;2024-02-23T08:58:55;98902.34;;;7.09;100.00
72285;BME280;60220;53.552;10.092;2024-02-23T09:01:24;98896.69;;;7.24;100.00
72285;BME280;60220;53.552;10.092;2024-02-23T09:03:50;98910.34;;;7.32;100.00
72285;BME280;60220;53.552;10.092;2024-02-23T09:06:17;98908.22;;;7.47;100.00
72285;BME280;60220;53.552;10.092;2024-02-23T09:08:46;98906.19;;;7.27;100.00
72285;BME280;60220;53.552;10.092;2024-02-23T09:11:13;98920.13;;;6.95;100.00
72285;BME280;60220;53.552;10.092;2024-02-23T09:13:40;98929.59;;;6.67;100.00
72285;BME280;60220;53.552;10.092;2024-02-23T09:16:08;98931.59;;;7.20;100.00
72285;BME280;60220;53.552;10.092;2024-02-23T09:18:35;98918.09;;;7.65;100.00
72285;BME280;60220;53.552;10.092;2024-02-23T09:21:01;98912.00;;;7.37;100.00
72285;BME280;60220;53.552;10.092;2024-02-23T09:23:30;98924.03;;;7.41;100.00
72285;BME280;60220;53.552;10.092;2024-02-23T09:25:59;98934.09;;;7.82;100.00
72285;BME280;60220;53.552;10.092;2024-02-23T09:28:29;98937.06;;;7.71;100.00
72285;BME280;60220;53.552;10.092;2024-02-23T09:30:56;98954.59;;;7.06;100.00
72285;BME280;60220;53.552;10.092;2024-02-23T09:33:23;98943.47;;;7.00;100.00
72285;BME280;60220;53.552;10.092;2024-02-23T09:35:50;98969.00;;;7.50;100.00
72285;BME280;60220;53.552;10.092;2024-02-23T09:38:16;98952.00;;;7.06;100.00
72285;BME280;60220;53.552;10.092;2024-02-23T09:40:43;98982.31;;;7.10;100.00
72285;BME280;60220;53.552;10.092;2024-02-23T09:43:12;98962.81;;;7.23;100.00
72285;BME280;60220;53.552;10.092;2024-02-23T09:45:39;98965.97;;;7.34;100.00
72285;BME280;60220;53.552;10.092;2024-02-23T09:48:07;98982.66;;;7.60;100.00
72285;BME280;60220;53.552;10.092;2024-02-23T09:50:33;98981.03;;;7.56;100.00
72285;BME280;60220;53.552;10.092;2024-02-23T09:53:01;98982.19;;;7.75;100.00
72285;BME280;60220;53.552;10.092;2024-02-23T09:55:31;98979.75;;;7.40;100.00
72285;BME280;60220;53.552;10.092;2024-02-23T09:57:58;98990.81;;;7.48;100.00
72285;BME280;60220;53.552;10.092;2024-02-23T10:00:27;98993.91;;;7.62;100.00
72285;BME280;60220;53.552;10.092;2024-02-23T10:02:55;98996.78;;;7.53;100.00
72285;BME280;60220;53.552;10.092;2024-02-23T10:05:29;99005.25;;;7.61;100.00
72285;BME280;60220;53.552;10.092;2024-02-23T10:07:58;98991.63;;;8.08;100.00
72285;BME280;60220;53.552;10.092;2024-02-23T10:10:29;99009.19;;;8.03;100.00
72285;BME280;60220;53.552;10.092;2024-02-23T10:13:00;99016.13;;;8.04;100.00
72285;BME280;60220;53.552;10.092;2024-02-23T10:15:30;99018.44;;;8.15;100.00
72285;BME280;60220;53.552;10.092;2024-02-23T10:17:57;99030.34;;;7.66;100.00
72285;BME280;60220;53.552;10.092;2024-02-23T10:20:24;99034.44;;;7.75;100.00
72285;BME280;60220;53.552;10.092;2024-02-23T10:22:50;99026.59;;;8.04;100.00
72285;BME280;60220;53.552;10.092;2024-02-23T10:25:19;99021.06;;;8.69;100.00
72285;BME280;60220;53.552;10.092;2024-02-23T10:27:45;99034.13;;;8.43;100.00
72285;BME280;60220;53.552;10.092;2024-02-23T10:30:13;99037.75;;;8.67;100.00
72285;BME280;60220;53.552;10.092;2024-02-23T10:32:41;99053.97;;;8.20;100.00
72285;BME280;60220;53.552;10.092;2024-02-23T10:35:10;99050.38;;;8.25;100.00
72285;BME280;60220;53.552;10.092;2024-02-23T10:37:37;99044.72;;;8.66;100.00
72285;BME280;60220;53.552;10.092;2024-02-23T10:40:08;99061.13;;;8.43;100.00
72285;BME280;60220;53.552;10.092;2024-02-23T10:42:38;99045.00;;;8.31;100.00
72285;BME280;60220;53.552;10.092;2024-02-23T10:45:06;99056.69;;;8.73;100.00
72285;BME280;60220;53.552;10.092;2024-02-23T10:47:34;99049.63;;;7.92;100.00
72285;BME280;60220;53.552;10.092;2024-02-23T10:50:07;99049.94;;;8.10;100.00
72285;BME280;60220;53.552;10.092;2024-02-23T10:52:36;99050.66;;;8.71;100.00
72285;BME280;60220;53.552;10.092;2024-02-23T10:55:04;99062.75;;;8.75;100.00
72285;BME280;60220;53.552;10.092;2024-02-23T10:57:34;99074.34;;;7.80;100.00
72285;BME280;60220;53.552;10.092;2024-02-23T11:00:02;99069.94;;;8.11;100.00
72285;BME280;60220;53.552;10.092;2024-02-23T11:02:32;99069.94;;;8.11;100.00
72285;BME280;60220;53.552;10.092;2024-02-23T11:05:02;99068.41;;;8.88;100.00
72285;BME280;60220;53.552;10.092;2024-02-23T11:07:31;99063.03;;;8.92;100.00
72285;BME280;60220;53.552;10.092;2024-02-23T11:09:58;99060.56;;;8.88;100.00
72285;BME280;60220;53.552;10.092;2024-02-23T11:12:26;99059.66;;;8.35;100.00
72285;BME280;60220;53.552;10.092;2024-02-23T11:14:56;99066.41;;;8.12;100.00
72285;BME280;60220;53.552;10.092;2024-02-23T11:17:26;99085.28;;;7.93;100.00
72285;BME280;60220;53.552;10.092;2024-02-23T11:19:54;99081.44;;;7.75;100.00
72285;BME280;60220;53.552;10.092;2024-02-23T11:22:24;99082.19;;;8.09;100.00
72285;BME280;60220;53.552;10.092;2024-02-23T11:24:53;99088.31;;;8.38;100.00
72285;BME280;60220;53.552;10.092;2024-02-23T11:27:20;99086.13;;;7.93;100.00
72285;BME280;60220;53.552;10.092;2024-02-23T11:29:59;99079.94;;;8.27;100.00
72285;BME280;60220;53.552;10.092;2024-02-23T11:32:36;99088.91;;;7.87;100.00
72285;BME280;60220;53.552;10.092;2024-02-23T11:35:07;99085.09;;;7.99;100.00
72285;BME280;60220;53.552;10.092;2024-02-23T11:37:47;99075.34;;;8.05;100.00
72285;BME280;60220;53.552;10.092;2024-02-23T11:40:17;99074.25;;;8.70;100.00
72285;BME280;60220;53.552;10.092;2024-02-23T11:42:47;99067.25;;;8.13;100.00
72285;BME280;60220;53.552;10.092;2024-02-23T11:45:16;99065.75;;;8.06;100.00
72285;BME280;60220;53.552;10.092;2024-02-23T11:47:43;99064.56;;;8.45;100.00
72285;BME280;60220;53.552;10.092;2024-02-23T11:50:10;99051.16;;;8.56;100.00
72285;BME280;60220;53.552;10.092;2024-02-23T11:52:37;99045.63;;;8.37;100.00
72285;BME280;60220;53.552;10.092;2024-02-23T11:55:04;99059.97;;;8.52;100.00
72285;BME280;60220;53.552;10.092;2024-02-23T11:57:35;99056.16;;;8.36;100.00
72285;BME280;60220;53.552;10.092;2024-02-23T12:00:02;99056.38;;;8.56;100.00
72285;BME280;60220;53.552;10.092;2024-02-23T12:02:29;99021.31;;;8.35;100.00
72285;BME280;60220;53.552;10.092;2024-02-23T12:04:56;99047.19;;;8.15;100.00
72285;BME280;60220;53.552;10.092;2024-02-23T12:07:22;99051.56;;;8.70;100.00
72285;BME280;60220;53.552;10.092;2024-02-23T12:09:51;99063.00;;;8.10;100.00
72285;BME280;60220;53.552;10.092;2024-02-23T12:12:18;99049.59;;;8.21;100.00
72285;BME280;60220;53.552;10.092;2024-02-23T12:14:47;99066.66;;;8.34;100.00
72285;BME280;60220;53.552;10.092;2024-02-23T12:17:14;99064.13;;;8.59;100.00
72285;BME280;60220;53.552;10.092;2024-02-23T12:19:41;99070.13;;;8.35;100.00
72285;BME280;60220;53.552;10.092;2024-02-23T12:22:10;99060.81;;;8.80;100.00
72285;BME280;60220;53.552;10.092;2024-02-23T12:24:37;99066.97;;;8.22;100.00
72285;BME280;60220;53.552;10.092;2024-02-23T12:27:04;99067.78;;;8.53;100.00
72285;BME280;60220;53.552;10.092;2024-02-23T12:29:31;99062.31;;;8.87;100.00
72285;BME280;60220;53.552;10.092;2024-02-23T12:32:06;99075.44;;;8.59;100.00
72285;BME280;60220;53.552;10.092;2024-02-23T12:34:34;99064.00;;;8.90;100.00
72285;BME280;60220;53.552;10.092;2024-02-23T12:37:02;99065.88;;;8.86;100.00
72285;BME280;60220;53.552;10.092;2024-02-23T12:39:28;99080.25;;;8.45;100.00
72285;BME280;60220;53.552;10.092;2024-02-23T12:41:55;99072.16;;;8.53;100.00
72285;BME280;60220;53.552;10.092;2024-02-23T12:44:22;99054.88;;;8.19;100.00
72285;BME280;60220;53.552;10.092;2024-02-23T12:46:51;99064.94;;;8.33;100.00
72285;BME280;60220;53.552;10.092;2024-02-23T12:49:21;99055.44;;;8.31;100.00
72285;BME280;60220;53.552;10.092;2024-02-23T12:51:48;99075.41;;;8.61;100.00